Time;durP1;ratioP1;P1;durP2;ratioP2;P2;SDS_P1;SDS_P2;PMS_P1;PMS_P2;Temp;Humidity;BMP_temperature;BMP_pressure;BME280_temperature;BME280_humidity;BME280_pressure;Samples;Min_cycle;Max_cycle;Signal;HPM_P1;HPM_P2
2022/01/27 07:00:10;;;;;;;;;47.20;41.00;;;;;7.31;60.36;102609.09;2386864;23;46738;-60
2022/01/27 07:01:10;;;;;;;;;47.20;40.60;;;;;7.30;60.34;102613.50;2042084;28;45241;-61
2022/01/27 07:02:11;;;;;;;;;44.75;38.25;;;;;7.31;60.44;102610.00;2042397;28;47413;-61
2022/01/27 07:03:11;;;;;;;;;45.75;39.75;;;;;7.32;60.60;102608.25;2042978;28;46320;-61
2022/01/27 07:04:12;;;;;;;;;41.25;37.75;;;;;7.33;60.31;102610.91;2042994;28;48227;-62
2022/01/27 07:05:15;;;;;;;;;44.50;38.00;;;;;7.33;60.52;102605.63;2042269;28;47173;-61
2022/01/27 07:06:15;;;;;;;;;47.40;39.80;;;;;7.35;60.13;102600.38;2042389;28;47350;-61
2022/01/27 07:07:16;;;;;;;;;47.75;39.00;;;;;7.35;60.30;102610.94;2042993;28;47980;-61
2022/01/27 07:08:16;;;;;;;;;46.00;38.25;;;;;7.37;60.38;102611.91;2043111;28;46245;-61
2022/01/27 07:09:17;;;;;;;;;52.50;41.00;;;;;7.38;60.53;102609.28;2043019;28;47155;-61
2022/01/27 07:10:18;;;;;;;;;45.00;38.25;;;;;7.39;60.19;102612.81;2043015;28;48267;-60
2022/01/27 07:11:18;;;;;;;;;50.25;41.00;;;;;7.39;60.53;102610.19;2042984;28;48222;-60
2022/01/27 07:12:19;;;;;;;;;45.25;36.25;;;;;7.40;60.06;102611.97;2043118;28;47743;-61
2022/01/27 07:13:19;;;;;;;;;43.75;37.25;;;;;7.38;60.08;102611.94;2042945;28;47535;-60
2022/01/27 07:14:20;;;;;;;;;50.50;39.00;;;;;7.39;60.18;102607.53;2042818;28;47151;-61
2022/01/27 07:15:20;;;;;;;;;43.75;39.00;;;;;7.38;60.21;102614.56;2042430;28;47224;-60
2022/01/27 07:16:21;;;;;;;;;48.25;40.25;;;;;7.39;60.25;102610.19;2042303;28;47235;-61
2022/01/27 07:17:22;;;;;;;;;40.00;36.50;;;;;7.39;60.38;102610.19;2042865;28;48145;-61
2022/01/27 07:18:23;;;;;;;;;42.00;36.20;;;;;7.38;60.38;102609.28;2042831;28;46257;-61
2022/01/27 07:19:24;;;;;;;;;46.40;39.20;;;;;7.38;60.28;102608.41;2042884;28;47354;-60
2022/01/27 07:20:24;;;;;;;;;46.50;37.25;;;;;7.38;60.27;102601.38;2042764;28;48244;-60
2022/01/27 07:21:24;;;;;;;;;48.75;41.00;;;;;7.38;60.34;102601.38;2042808;28;47541;-60
2022/01/27 07:22:25;;;;;;;;;46.50;39.00;;;;;7.38;60.33;102593.44;2042904;28;47032;-61
2022/01/27 07:23:25;;;;;;;;;47.75;39.00;;;;;7.40;60.18;102596.09;2042595;28;46782;-61
2022/01/27 07:24:26;;;;;;;;;39.75;35.75;;;;;7.41;60.26;102604.94;2042689;28;48050;-61
2022/01/27 07:25:26;;;;;;;;;48.25;40.00;;;;;7.42;60.33;102604.06;2042829;28;47735;-61
2022/01/27 07:26:27;;;;;;;;;50.25;41.00;;;;;7.41;60.38;102605.81;2042739;28;47575;-61
2022/01/27 07:27:27;;;;;;;;;46.50;40.50;;;;;7.41;60.49;102597.88;2042805;28;47809;-61
2022/01/27 07:28:28;;;;;;;;;45.25;38.50;;;;;7.42;60.09;102606.69;2042661;28;47335;-61
2022/01/27 07:29:28;;;;;;;;;49.75;40.25;;;;;7.41;60.20;102605.81;2042769;28;47088;-60
2022/01/27 07:30:29;;;;;;;;;46.25;38.75;;;;;7.41;60.34;102600.53;2042788;28;47117;-61
2022/01/27 07:31:29;;;;;;;;;44.75;36.50;;;;;7.42;60.11;102606.69;2042758;28;48193;-61
2022/01/27 07:32:29;;;;;;;;;46.75;38.25;;;;;7.42;60.02;102606.69;2042702;28;47287;-61
2022/01/27 07:33:30;;;;;;;;;45.25;39.75;;;;;7.41;60.05;102603.16;2042731;28;48455;-62
2022/01/27 07:34:30;;;;;;;;;43.50;36.50;;;;;7.40;59.96;102604.03;2042671;28;47214;-61
2022/01/27 07:35:31;;;;;;;;;42.50;38.50;;;;;7.40;60.03;102601.41;2042744;28;48195;-61
2022/01/27 07:36:32;;;;;;;;;47.00;39.00;;;;;7.40;60.03;102603.13;2042615;28;47072;-60
2022/01/27 07:37:32;;;;;;;;;43.00;36.75;;;;;7.38;60.26;102600.47;2042490;28;47340;-61
2022/01/27 07:38:33;;;;;;;;;50.75;40.00;;;;;7.38;60.25;102605.75;2042644;28;47932;-61
2022/01/27 07:39:33;;;;;;;;;44.00;37.00;;;;;7.38;59.98;102597.84;2042578;28;47495;-60
2022/01/27 07:40:34;;;;;;;;;38.00;34.00;;;;;7.37;60.01;102598.69;2042615;28;47411;-60
2022/01/27 07:41:35;;;;;;;;;49.25;40.00;;;;;7.37;59.94;102601.34;2042676;28;47190;-60
2022/01/27 07:42:36;;;;;;;;;48.75;40.00;;;;;7.37;60.29;102603.97;2042711;28;47167;-61
2022/01/27 07:43:36;;;;;;;;;48.25;40.00;;;;;7.36;60.13;102602.16;2042827;28;47393;-61
2022/01/27 07:44:36;;;;;;;;;44.00;37.50;;;;;7.36;60.29;102603.06;2042337;28;47893;-61
2022/01/27 07:45:37;;;;;;;;;49.50;41.25;;;;;7.37;60.28;102604.88;2042059;28;48194;-61
2022/01/27 07:46:38;;;;;;;;;45.75;38.75;;;;;7.37;60.30;102596.06;2042731;28;48337;-62
2022/01/27 07:47:38;;;;;;;;;47.50;40.00;;;;;7.37;60.02;102598.69;2042671;28;47403;-61
2022/01/27 07:48:42;;;;;;;;;48.50;38.00;;;;;7.38;60.20;102597.84;2042588;28;47237;-62
2022/01/27 07:49:42;;;;;;;;;44.20;39.20;;;;;7.38;60.25;102597.84;2042682;28;47476;-62
2022/01/27 07:50:44;;;;;;;;;48.50;40.50;;;;;7.37;60.07;102596.94;2042448;28;45998;-61
2022/01/27 07:51:44;;;;;;;;;46.80;38.00;;;;;7.37;60.00;102596.06;2042591;28;48516;-60
2022/01/27 07:52:45;;;;;;;;;42.00;36.25;;;;;7.37;60.07;102598.69;2042546;28;48222;-61
2022/01/27 07:53:46;;;;;;;;;46.20;38.20;;;;;7.38;60.27;102600.47;2042531;28;47338;-61
2022/01/27 07:54:47;;;;;;;;;40.25;35.75;;;;;7.38;60.05;102597.84;2042478;28;47179;-61
2022/01/27 07:55:47;;;;;;;;;40.00;36.75;;;;;7.39;60.01;102599.59;2042479;28;47012;-61
2022/01/27 07:56:47;;;;;;;;;47.50;40.25;;;;;7.41;60.24;102595.25;2042509;28;47073;-60
2022/01/27 07:57:48;;;;;;;;;42.25;36.25;;;;;7.41;60.24;102597.88;2042464;28;47573;-60
2022/01/27 07:58:49;;;;;;;;;40.50;36.25;;;;;7.42;60.35;102594.38;2042515;28;47130;-61
2022/01/27 07:59:49;;;;;;;;;46.25;41.00;;;;;7.42;59.82;102598.78;2041858;28;48661;-61
2022/01/27 08:00:50;;;;;;;;;48.25;40.25;;;;;7.45;60.33;102598.84;2041608;28;47056;-60
2022/01/27 08:01:50;;;;;;;;;43.25;37.50;;;;;7.45;60.16;102605.00;2042478;28;48369;-60
2022/01/27 08:02:51;;;;;;;;;52.00;41.75;;;;;7.46;59.95;102605.91;2042354;28;47014;-61
2022/01/27 08:03:52;;;;;;;;;45.25;37.75;;;;;7.47;60.15;102611.22;2042470;28;47051;-61
2022/01/27 08:04:53;;;;;;;;;46.75;40.50;;;;;7.47;59.93;102611.22;2042471;28;47806;-61
2022/01/27 08:05:54;;;;;;;;;43.00;36.75;;;;;7.48;60.22;102607.72;2042185;28;46948;-59
2022/01/27 08:06:56;;;;;;;;;47.60;40.00;;;;;7.49;59.98;102608.59;2042523;28;46873;-60
2022/01/27 08:07:58;;;;;;;;;54.20;40.00;;;;;7.50;60.03;102613.94;2042433;28;46926;-62
2022/01/27 08:08:59;;;;;;;;;47.60;37.80;;;;;7.51;60.01;102609.56;2042583;28;47241;-61
2022/01/27 08:10:00;;;;;;;;;50.20;39.60;;;;;7.51;60.02;102612.19;2042495;28;45278;-62
2022/01/27 08:11:02;;;;;;;;;38.00;34.50;;;;;7.52;60.16;102608.69;2042442;28;47782;-60
2022/01/27 08:12:03;;;;;;;;;49.00;40.00;;;;;7.53;60.09;102613.13;2042456;28;47889;-61
2022/01/27 08:13:05;;;;;;;;;44.40;35.00;;;;;7.53;60.18;102613.13;2041523;28;46180;-60
2022/01/27 08:14:05;;;;;;;;;49.60;38.80;;;;;7.53;60.02;102606.06;2041491;28;47502;-61
2022/01/27 08:15:07;;;;;;;;;50.50;39.00;;;;;7.53;60.06;102608.72;2042367;28;48260;-61
2022/01/27 08:16:08;;;;;;;;;40.60;37.00;;;;;7.53;59.89;102608.72;2041645;28;45342;-62
2022/01/27 08:17:09;;;;;;;;;43.75;39.25;;;;;7.54;60.00;102609.59;2041972;28;45970;-60
2022/01/27 08:18:10;;;;;;;;;43.25;37.25;;;;;7.54;60.01;102609.59;2042283;28;47019;-62
2022/01/27 08:19:11;;;;;;;;;48.25;40.00;;;;;7.55;60.13;102608.75;2042345;28;46793;-62
2022/01/27 08:20:11;;;;;;;;;49.60;40.80;;;;;7.53;59.87;102608.72;2042430;28;47715;-63
2022/01/27 08:21:12;;;;;;;;;41.50;37.00;;;;;7.54;60.36;102613.13;2042283;28;48322;-62
2022/01/27 08:22:14;;;;;;;;;42.60;36.60;;;;;7.53;59.68;102616.66;2041750;28;47521;-60
2022/01/27 08:23:15;;;;;;;;;48.60;38.80;;;;;7.53;59.84;102621.94;2041717;28;46776;-62
2022/01/27 08:24:17;;;;;;;;;48.00;39.00;;;;;7.52;59.85;102614.88;2042403;28;48399;-62
2022/01/27 08:25:22;;;;;;;;;41.80;37.20;;;;;7.52;59.89;102612.22;2042240;28;48257;-62
2022/01/27 08:27:01;;;;;;;;;49.40;39.40;;;;;7.52;60.09;102606.94;2042350;28;47402;-61
2022/01/27 08:27:56;;;;;;;;;38.00;36.00;;;;;7.53;60.06;102616.66;2039339;28;46077;-61
2022/01/27 08:29:09;;;;;;;;;49.80;40.00;;;;;7.52;59.98;102617.50;2042283;28;47908;-63
2022/01/27 08:30:11;;;;;;;;;41.60;36.00;;;;;7.52;60.07;102612.22;2042220;28;47726;-64
2022/01/27 08:31:14;;;;;;;;;41.60;38.20;;;;;7.53;59.92;102621.94;2042221;28;47708;-63
2022/01/27 08:32:18;;;;;;;;;42.80;36.80;;;;;7.52;60.03;102619.25;2042168;28;48123;-62
2022/01/27 08:33:20;;;;;;;;;48.60;40.20;;;;;7.53;60.00;102624.56;2042299;28;48154;-62
2022/01/27 08:34:30;;;;;;;;;47.60;40.20;;;;;7.53;60.18;102623.69;2042310;28;47259;-61
2022/01/27 08:35:32;;;;;;;;;51.00;40.60;;;;;7.53;59.98;102619.28;2042322;28;48281;-61
2022/01/27 08:36:32;;;;;;;;;51.00;39.80;;;;;7.54;59.87;102620.19;2041712;28;45692;-61
2022/01/27 08:37:33;;;;;;;;;45.50;37.00;;;;;7.54;60.16;102623.72;2041677;28;46463;-62
2022/01/27 08:38:36;;;;;;;;;48.75;39.25;;;;;7.56;59.83;102621.09;2042206;28;48168;-61
2022/01/27 08:39:38;;;;;;;;;47.80;40.40;;;;;7.56;59.89;102631.66;2042262;28;47206;-61
2022/01/27 08:40:39;;;;;;;;;50.40;41.20;;;;;7.55;60.04;102625.50;2042281;28;47739;-61
2022/01/27 08:41:39;;;;;;;;;48.00;37.20;;;;;7.56;59.89;102621.09;2042310;28;47887;-60
2022/01/27 08:42:41;;;;;;;;;43.75;38.25;;;;;7.56;59.98;102627.25;2042253;28;48133;-61
2022/01/27 08:43:41;;;;;;;;;52.20;42.00;;;;;7.57;59.88;102620.22;2042165;28;47566;-61
2022/01/27 08:44:42;;;;;;;;;51.75;40.75;;;;;7.56;59.87;102618.44;2042178;28;48098;-61
2022/01/27 08:45:44;;;;;;;;;46.00;38.25;;;;;7.56;59.96;102621.09;2042191;28;47676;-62
2022/01/27 08:46:45;;;;;;;;;44.40;37.60;;;;;7.56;60.14;102619.34;2042229;28;47474;-60
2022/01/27 08:47:46;;;;;;;;;44.75;38.00;;;;;7.57;60.00;102622.88;2041752;28;46018;-61
2022/01/27 08:48:47;;;;;;;;;50.00;40.40;;;;;7.56;59.95;102627.25;2042337;28;47418;-61
2022/01/27 08:49:48;;;;;;;;;47.75;39.00;;;;;7.57;60.08;102628.16;2042249;28;48319;-65
2022/01/27 08:50:59;;;;;;;;;51.50;41.00;;;;;7.58;59.68;102625.53;2042318;28;46247;-60
2022/01/27 08:52:00;;;;;;;;;51.60;38.40;;;;;7.58;60.16;102628.19;2042244;28;46924;-61
2022/01/27 08:53:00;;;;;;;;;48.75;41.00;;;;;7.59;60.01;102626.44;2042342;28;46818;-61
2022/01/27 08:54:01;;;;;;;;;48.75;38.25;;;;;7.58;59.78;102622.00;2042359;28;48318;-61
2022/01/27 08:55:03;;;;;;;;;49.50;40.00;;;;;7.57;59.77;102620.22;2042275;28;48187;-61
2022/01/27 08:56:04;;;;;;;;;51.40;41.40;;;;;7.57;60.01;102621.13;2041623;28;47999;-62
2022/01/27 08:57:05;;;;;;;;;43.40;34.80;;;;;7.56;59.87;102619.34;2041578;28;47308;-60
2022/01/27 08:58:05;;;;;;;;;45.00;37.25;;;;;7.57;59.96;102617.59;2042238;28;47259;-61
2022/01/27 08:59:06;;;;;;;;;45.00;37.75;;;;;7.57;59.94;102615.84;2042140;28;46819;-61
2022/01/27 09:00:09;;;;;;;;;48.00;40.00;;;;;7.59;60.24;102623.78;2041991;28;48427;-61
2022/01/27 09:01:09;;;;;;;;;49.20;40.00;;;;;7.57;59.95;102614.94;2042266;28;47575;-62
2022/01/27 09:02:10;;;;;;;;;50.00;40.00;;;;;7.59;59.85;102607.94;2042195;28;46287;-60
2022/01/27 09:03:11;;;;;;;;;47.75;39.75;;;;;7.58;60.04;102620.25;2042197;28;47072;-61
2022/01/27 09:04:12;;;;;;;;;54.50;41.75;;;;;7.60;59.82;102615.91;2042189;28;47816;-61
2022/01/27 09:05:13;;;;;;;;;54.00;43.00;;;;;7.60;59.92;102618.53;2042151;28;47208;-61
2022/01/27 09:06:14;;;;;;;;;50.60;40.40;;;;;7.60;60.14;102607.97;2042173;28;47746;-61
2022/01/27 09:07:15;;;;;;;;;45.25;38.50;;;;;7.60;59.93;102613.25;2042353;28;48384;-60
2022/01/27 09:08:16;;;;;;;;;49.60;39.80;;;;;7.62;59.99;102613.28;2041575;28;47221;-60
2022/01/27 09:09:16;;;;;;;;;53.00;43.50;;;;;7.63;59.89;102607.16;2041687;28;46904;-61
2022/01/27 09:10:17;;;;;;;;;48.50;40.25;;;;;7.64;59.89;102598.38;2042221;28;47093;-60
2022/01/27 09:11:17;;;;;;;;;46.50;39.00;;;;;7.65;60.23;102605.44;2042176;28;47271;-60
2022/01/27 09:12:18;;;;;;;;;51.25;43.25;;;;;7.66;60.24;102609.88;2042167;28;48606;-61
2022/01/27 09:13:19;;;;;;;;;51.20;41.20;;;;;7.67;59.99;102594.03;2042185;28;48086;-61
2022/01/27 09:14:20;;;;;;;;;50.75;36.75;;;;;7.68;60.01;102597.56;2042133;28;46999;-61
2022/01/27 09:15:20;;;;;;;;;48.00;39.50;;;;;7.68;59.94;102601.09;2041571;28;48187;-61
2022/01/27 09:16:25;;;;;;;;;42.75;35.25;;;;;7.68;59.82;102601.09;2041586;28;48361;-62
2022/01/27 09:17:26;;;;;;;;;48.60;39.80;;;;;7.69;60.00;102594.06;2042072;28;47025;-62
2022/01/27 09:18:27;;;;;;;;;46.00;38.50;;;;;7.71;59.87;102592.34;2042133;28;48374;-62
2022/01/27 09:19:28;;;;;;;;;49.75;40.75;;;;;7.72;59.93;102594.13;2042078;28;47801;-62
2022/01/27 09:20:29;;;;;;;;;49.20;39.00;;;;;7.73;60.18;102593.25;2042117;28;47085;-62
2022/01/27 09:21:40;;;;;;;;;46.60;40.40;;;;;7.73;60.02;102587.97;2042177;28;48020;-61
2022/01/27 09:22:41;;;;;;;;;41.60;36.60;;;;;7.74;60.09;102592.38;2042022;28;47043;-62
2022/01/27 09:23:42;;;;;;;;;45.75;37.50;;;;;7.75;60.13;102585.34;2042069;28;47733;-62
2022/01/27 09:24:53;;;;;;;;;47.25;39.25;;;;;7.77;59.92;102586.31;2042026;28;46790;-62
2022/01/27 09:26:01;;;;;;;;;52.20;40.40;;;;;7.78;59.90;102590.72;2041857;28;47148;-61
2022/01/27 09:27:02;;;;;;;;;44.20;38.20;;;;;7.80;60.04;102594.28;2042106;28;47992;-62
2022/01/27 09:28:03;;;;;;;;;40.50;37.00;;;;;7.81;59.98;102598.69;2042099;28;47411;-63
2022/01/27 09:29:03;;;;;;;;;43.00;38.00;;;;;7.82;60.04;102597.84;2041867;28;47045;-62
2022/01/27 09:30:05;;;;;;;;;49.75;40.50;;;;;7.83;59.92;102599.63;2041956;28;48321;-60
2022/01/27 09:31:05;;;;;;;;;50.00;40.80;;;;;7.84;59.73;102596.13;2042119;28;47404;-61
2022/01/27 09:32:07;;;;;;;;;51.00;40.75;;;;;7.84;60.05;102589.06;2042019;28;47222;-62
2022/01/27 09:33:08;;;;;;;;;41.60;37.80;;;;;7.82;59.88;102593.44;2042040;28;47910;-61
2022/01/27 09:34:10;;;;;;;;;46.20;38.80;;;;;7.84;59.84;102594.34;2041942;28;46111;-61
2022/01/27 09:35:11;;;;;;;;;44.80;38.00;;;;;7.84;59.88;102594.34;2042093;28;48364;-61
2022/01/27 09:36:12;;;;;;;;;50.20;40.40;;;;;7.85;59.96;102596.13;2041993;28;47251;-60
2022/01/27 09:37:14;;;;;;;;;38.25;34.00;;;;;7.86;59.88;102592.63;2042016;28;46984;-61
2022/01/27 09:38:18;;;;;;;;;47.80;40.40;;;;;7.88;59.92;102596.22;2041950;28;48289;-61
2022/01/27 09:39:20;;;;;;;;;47.20;39.00;;;;;7.90;59.97;102593.59;2041911;28;48118;-61
2022/01/27 09:40:21;;;;;;;;;45.20;38.80;;;;;7.90;59.87;102594.50;2041908;28;47335;-61
2022/01/27 09:41:24;;;;;;;;;48.20;39.60;;;;;7.92;60.09;102599.81;2041918;28;47593;-61
2022/01/27 09:42:28;;;;;;;;;50.20;41.40;;;;;7.92;59.67;102591.88;2042059;28;47759;-61
2022/01/27 09:43:29;;;;;;;;;44.60;38.60;;;;;7.93;59.70;102598.94;2041941;28;46874;-61
2022/01/27 09:44:32;;;;;;;;;47.00;38.00;;;;;7.94;59.74;102601.59;2042178;28;48464;-61
2022/01/27 09:45:37;;;;;;;;;43.20;38.20;;;;;7.96;59.88;102601.63;2041923;28;48274;-61
2022/01/27 09:46:41;;;;;;;;;49.00;39.20;;;;;7.96;59.77;102591.94;2041827;28;46317;-61
2022/01/27 09:47:43;;;;;;;;;48.60;38.40;;;;;7.97;59.76;102593.72;2041975;28;47344;-61
2022/01/27 09:48:47;;;;;;;;;43.40;36.40;;;;;7.99;59.53;102599.03;2042054;28;47744;-62
2022/01/27 09:50:04;;;;;;;;;45.80;38.00;;;;;8.00;59.71;102595.53;2041885;28;47147;-62
2022/01/27 09:51:25;;;;;;;;;45.40;38.00;;;;;8.03;59.79;102594.72;2041820;28;47036;-62
2022/01/27 09:52:25;;;;;;;;;48.00;41.40;;;;;8.05;59.92;102601.81;2041841;28;47364;-62
2022/01/27 09:53:27;;;;;;;;;51.00;42.25;;;;;8.06;59.89;102595.66;2041774;28;47303;-60
2022/01/27 09:54:28;;;;;;;;;51.80;43.80;;;;;8.09;59.58;102598.34;2041860;28;48289;-61
2022/01/27 09:55:28;;;;;;;;;41.60;36.20;;;;;8.11;59.83;102588.69;2041929;28;48388;-60
2022/01/27 09:56:29;;;;;;;;;49.75;40.75;;;;;8.12;59.68;102590.47;2041854;28;46129;-61
2022/01/27 09:57:30;;;;;;;;;44.75;38.00;;;;;8.15;59.86;102594.97;2041954;28;47116;-62
2022/01/27 09:58:31;;;;;;;;;50.60;40.60;;;;;8.16;59.26;102594.09;2041854;28;47106;-62
2022/01/27 09:59:32;;;;;;;;;44.75;36.25;;;;;8.17;59.72;102588.81;2041787;28;46031;-61
2022/01/27 10:00:33;;;;;;;;;49.00;40.60;;;;;8.17;59.73;102583.53;2041681;28;46952;-61
2022/01/27 10:01:36;;;;;;;;;49.60;39.80;;;;;8.19;59.61;102586.22;2041907;28;47908;-61
2022/01/27 10:02:39;;;;;;;;;45.00;37.60;;;;;8.19;59.57;102576.50;2041999;28;48252;-60
2022/01/27 10:04:00;;;;;;;;;45.60;39.20;;;;;8.20;59.58;102583.59;2041669;28;47066;-60
2022/01/27 10:05:02;;;;;;;;;50.20;40.20;;;;;8.21;59.57;102577.44;2041961;28;47791;-60
2022/01/27 10:06:15;;;;;;;;;46.00;38.00;;;;;8.22;59.67;102584.50;2041772;28;47412;-60
2022/01/27 10:07:21;;;;;;;;;48.00;37.20;;;;;8.22;59.49;102579.22;2042075;28;46850;-60
2022/01/27 10:08:22;;;;;;;;;46.40;40.00;;;;;8.23;59.37;102583.63;2042463;28;47710;-60
2022/01/27 10:09:27;;;;;;;;;41.00;36.40;;;;;8.25;59.49;102576.59;2043199;28;47038;-61
2022/01/27 10:10:33;;;;;;;;;45.00;39.40;;;;;8.26;59.49;102591.66;2043217;28;46949;-61
2022/01/27 10:11:34;;;;;;;;;50.60;42.20;;;;;8.26;59.33;102577.53;2043282;28;46901;-61
2022/01/27 10:12:42;;;;;;;;;44.75;36.75;;;;;8.26;59.51;102577.53;2043356;28;47260;-60
2022/01/27 10:13:46;;;;;;;;;47.00;38.80;;;;;8.28;59.36;102586.38;2043194;28;47159;-60
2022/01/27 10:15:00;;;;;;;;;51.40;40.00;;;;;8.29;59.23;102581.97;2043279;28;46081;-61
2022/01/27 10:16:02;;;;;;;;;49.00;40.00;;;;;8.30;59.72;102576.72;2043186;28;48087;-60
2022/01/27 10:17:13;;;;;;;;;58.20;45.20;;;;;8.32;59.61;102582.91;2043121;28;45590;-61
2022/01/27 10:18:17;;;;;;;;;49.40;39.40;;;;;8.32;59.61;102576.72;2043166;28;46983;-60
2022/01/27 10:19:18;;;;;;;;;51.60;40.60;;;;;8.33;59.21;102586.44;2043298;28;48270;-61
2022/01/27 10:20:21;;;;;;;;;48.80;37.20;;;;;8.35;59.33;102590.03;2043219;28;47983;-61
2022/01/27 10:21:31;;;;;;;;;47.40;40.00;;;;;8.36;59.36;102590.06;2043332;28;47251;-61
2022/01/27 10:22:32;;;;;;;;;46.60;39.20;;;;;8.36;59.34;102594.47;2043135;28;46865;-62
2022/01/27 10:23:37;;;;;;;;;45.20;38.60;;;;;8.37;59.31;102593.59;2043351;28;47115;-61
2022/01/27 10:24:38;;;;;;;;;48.40;39.40;;;;;8.38;59.45;102598.03;2043229;28;47007;-61
2022/01/27 10:25:46;;;;;;;;;51.80;40.20;;;;;8.37;59.46;102593.59;2043061;28;47014;-61
2022/01/27 10:26:59;;;;;;;;;49.80;40.60;;;;;8.38;59.28;102609.50;2043071;28;46254;-60
2022/01/27 10:28:09;;;;;;;;;43.20;37.60;;;;;8.38;59.10;102603.31;2043235;28;47915;-62
2022/01/27 10:29:17;;;;;;;;;46.80;39.60;;;;;8.38;59.18;102601.56;2043125;28;46903;-62
2022/01/27 10:31:28;;;;;;;;;47.80;38.60;;;;;8.38;59.35;102601.56;2043049;28;47322;-61
2022/01/27 10:32:44;;;;;;;;;41.60;36.80;;;;;8.39;59.48;102594.53;2043081;28;46824;-61
2022/01/27 10:34:05;;;;;;;;;49.80;39.00;;;;;8.39;59.17;102594.53;2042443;28;47109;-60
2022/01/27 10:35:07;;;;;;;;;51.40;38.60;;;;;8.40;59.29;102588.38;2042813;28;46878;-62
2022/01/27 10:36:16;;;;;;;;;48.80;36.20;;;;;8.40;59.26;102578.69;2043076;28;47768;-61
2022/01/27 10:37:17;;;;;;;;;48.40;38.40;;;;;8.41;59.16;102580.47;2042632;28;47136;-62
2022/01/27 10:38:18;;;;;;;;;50.75;38.75;;;;;8.43;59.34;102588.44;2042598;28;47010;-60
2022/01/27 10:39:24;;;;;;;;;44.00;39.00;;;;;8.42;59.41;102576.94;2050543;28;47828;-62
2022/01/27 10:40:28;;;;;;;;;41.80;37.20;;;;;8.46;59.11;102586.72;2049665;28;46358;-61
2022/01/27 10:41:32;;;;;;;;;46.60;37.40;;;;;8.46;59.31;102572.59;2042965;28;45604;-61
2022/01/27 10:42:38;;;;;;;;;48.40;39.00;;;;;8.46;59.19;102567.31;2043053;28;47206;-62
2022/01/27 10:43:40;;;;;;;;;51.60;42.20;;;;;8.45;59.33;102574.34;2043031;28;48120;-62
2022/01/27 10:45:07;;;;;;;;;50.40;40.00;;;;;8.46;59.08;102577.88;2042960;28;46475;-62
2022/01/27 10:47:21;;;;;;;;;45.40;39.20;;;;;8.45;59.11;102571.72;2043008;28;47079;-62
2022/01/27 10:48:26;;;;;;;;;43.00;37.80;;;;;8.45;59.05;102577.00;2042983;28;47854;-62
2022/01/27 10:49:33;;;;;;;;;43.60;36.20;;;;;8.45;59.27;102574.34;2042870;28;47086;-62
2022/01/27 10:50:51;;;;;;;;;41.60;36.00;;;;;8.46;59.20;102570.84;2043038;28;48003;-63
2022/01/27 10:51:54;;;;;;;;;49.40;39.20;;;;;8.47;59.44;102575.25;2042922;28;47681;-61
2022/01/27 10:52:57;;;;;;;;;48.00;41.00;;;;;8.48;59.17;102581.44;2043164;28;46280;-62
2022/01/27 10:55:17;;;;;;;;;45.20;38.40;;;;;8.50;59.04;102585.88;2042564;28;47832;-62
2022/01/27 10:56:21;;;;;;;;;46.00;37.40;;;;;8.50;59.25;102580.59;2043096;28;47111;-62
2022/01/27 10:57:27;;;;;;;;;50.00;41.20;;;;;8.52;59.28;102583.31;2043022;28;47340;-61
2022/01/27 10:58:28;;;;;;;;;42.80;36.40;;;;;8.52;59.29;102580.66;2043050;28;46874;-60
2022/01/27 10:59:32;;;;;;;;;50.00;41.80;;;;;8.52;59.06;102578.00;2042960;28;47786;-61
2022/01/27 11:00:37;;;;;;;;;47.00;40.40;;;;;8.53;59.09;102579.78;2042709;28;47164;-61
2022/01/27 11:01:43;;;;;;;;;46.00;36.00;;;;;8.54;59.30;102582.44;2042841;28;47564;-62
2022/01/27 11:02:56;;;;;;;;;52.40;39.60;;;;;8.55;59.32;102578.06;2042897;28;47122;-61
2022/01/27 11:04:00;;;;;;;;;52.40;42.20;;;;;8.56;59.10;102579.81;2042871;28;47800;-61
2022/01/27 11:05:01;;;;;;;;;49.00;39.80;;;;;8.58;59.02;102582.50;2042881;28;47406;-61
2022/01/27 11:06:11;;;;;;;;;47.40;38.00;;;;;8.58;59.04;102585.13;2042923;28;46190;-63
2022/01/27 11:07:14;;;;;;;;;42.00;37.20;;;;;8.59;59.24;102589.56;2042126;28;47035;-62
2022/01/27 11:08:14;;;;;;;;;46.20;39.60;;;;;8.60;59.10;102591.34;2042256;28;46914;-60
2022/01/27 11:09:15;;;;;;;;;47.50;37.75;;;;;8.59;59.31;102589.56;2042738;28;47097;-62
2022/01/27 11:10:17;;;;;;;;;45.00;39.50;;;;;8.59;59.12;102590.47;2042957;28;48170;-61
2022/01/27 11:11:18;;;;;;;;;44.60;38.40;;;;;8.59;59.24;102585.16;2042969;28;47221;-61
2022/01/27 11:12:18;;;;;;;;;50.75;40.25;;;;;8.59;59.18;102587.81;2042998;28;47413;-61
2022/01/27 11:13:21;;;;;;;;;49.25;40.00;;;;;8.59;58.91;102589.56;2042346;28;47361;-61
2022/01/27 11:14:24;;;;;;;;;48.60;39.20;;;;;8.58;58.93;102586.03;2042348;28;48372;-61
2022/01/27 11:15:25;;;;;;;;;43.20;35.80;;;;;8.57;59.01;102586.91;2034293;28;47914;-59
2022/01/27 11:16:35;;;;;;;;;51.00;40.00;;;;;8.58;59.20;102590.44;2034323;28;46836;-61
2022/01/27 11:17:38;;;;;;;;;49.40;39.00;;;;;8.60;59.03;102588.69;2042844;28;47506;-60
2022/01/27 11:18:39;;;;;;;;;50.40;41.60;;;;;8.59;59.39;102587.81;2042944;28;46911;-61
2022/01/27 11:21:08;;;;;;;;;52.60;41.60;;;;;8.63;59.27;102586.09;2017932;29;47682;-61
2022/01/27 11:22:42;;;;;;;;;52.00;41.20;;;;;8.62;59.29;102577.25;2040519;28;47863;-61
2022/01/27 11:26:03;;;;;;;;;41.80;37.20;;;;;8.65;59.07;102577.34;2042636;28;47067;-62
2022/01/27 11:27:06;;;;;;;;;46.80;40.00;;;;;8.65;59.19;102577.34;2042282;28;47775;-60
2022/01/27 11:28:08;;;;;;;;;50.40;41.00;;;;;8.65;59.07;102577.34;2042201;28;47244;-61
2022/01/27 11:29:09;;;;;;;;;51.40;41.60;;;;;8.66;59.29;102578.22;2042879;28;46967;-61
2022/01/27 11:30:20;;;;;;;;;45.80;39.80;;;;;8.67;59.23;102575.59;2042853;28;46903;-62
2022/01/27 11:31:45;;;;;;;;;44.20;36.40;;;;;8.68;59.17;102579.13;2042800;28;47783;-61
2022/01/27 11:33:02;;;;;;;;;44.80;38.40;;;;;8.70;59.01;102578.28;2042628;28;45449;-62
2022/01/27 11:34:05;;;;;;;;;47.80;38.20;;;;;8.70;59.25;102574.75;2042771;28;47616;-62
2022/01/27 11:35:20;;;;;;;;;51.00;39.60;;;;;8.70;59.33;102566.81;2042735;28;47553;-63
2022/01/27 11:36:24;;;;;;;;;51.20;41.20;;;;;8.71;59.22;102569.47;2042793;28;47400;-62
2022/01/27 11:37:32;;;;;;;;;49.80;41.00;;;;;8.73;59.30;102564.19;2042742;28;47714;-61
2022/01/27 11:38:33;;;;;;;;;50.00;39.00;;;;;8.74;59.10;102563.34;2042713;28;47728;-61
2022/01/27 11:39:54;;;;;;;;;50.00;39.25;;;;;8.76;59.14;102558.94;2042707;28;47884;-61
2022/01/27 11:40:55;;;;;;;;;48.60;38.60;;;;;8.76;59.10;102570.44;2042738;28;48327;-60
2022/01/27 11:41:55;;;;;;;;;52.25;41.75;;;;;8.77;59.46;102560.75;2042735;28;47793;-61
2022/01/27 11:42:55;;;;;;;;;47.75;36.00;;;;;8.78;59.08;102565.19;2042670;28;47316;-61
2022/01/27 11:44:19;;;;;;;;;44.00;38.25;;;;;8.79;58.84;102562.56;2042732;28;48403;-60
2022/01/27 11:45:23;;;;;;;;;53.20;39.60;;;;;8.81;58.97;102557.28;2042833;28;47295;-60
2022/01/27 11:46:29;;;;;;;;;47.40;36.80;;;;;8.81;59.30;102549.34;2042754;28;47447;-60
2022/01/27 11:47:49;;;;;;;;;43.40;37.40;;;;;8.84;59.26;102550.25;2042776;28;48287;-60
2022/01/27 11:48:50;;;;;;;;;48.80;38.80;;;;;8.85;59.13;102551.16;2042695;28;48596;-62
2022/01/27 11:50:11;;;;;;;;;51.75;41.25;;;;;8.86;59.34;102545.00;2042717;28;47246;-61
2022/01/27 11:51:13;;;;;;;;;40.80;36.00;;;;;8.88;59.10;102543.25;2042719;28;48350;-61
2022/01/27 11:52:24;;;;;;;;;50.20;41.80;;;;;8.89;59.26;102538.84;2042739;28;48225;-61
2022/01/27 11:53:40;;;;;;;;;45.60;36.20;;;;;8.90;59.13;102536.25;2042673;28;48109;-61
2022/01/27 11:54:41;;;;;;;;;49.00;39.00;;;;;8.91;59.18;102542.44;2042644;28;46333;-60
2022/01/27 11:55:44;;;;;;;;;52.75;41.50;;;;;8.92;59.15;102536.25;2042594;28;47412;-61
2022/01/27 11:56:46;;;;;;;;;47.80;38.60;;;;;8.92;59.14;102534.50;2042716;28;47175;-61
2022/01/27 11:57:48;;;;;;;;;45.00;38.60;;;;;8.93;59.08;102538.94;2042624;28;48302;-62
2022/01/27 11:58:52;;;;;;;;;47.80;38.60;;;;;8.94;59.17;102535.41;2042627;28;48304;-61